Time;durP1;ratioP1;P1;durP2;ratioP2;P2;SDS_P1;SDS_P2;PMS_P1;PMS_P2;Temp;Humidity;BMP_temperature;BMP_pressure;BME280_temperature;BME280_humidity;BME280_pressure;Samples;Min_cycle;Max_cycle;Signal;HPM_P1;HPM_P2
2022/10/15 00:00:52;;;;;;;;;;;20.10;56.00;;;;;;8432100;28;20299;-43
2022/10/15 00:04:52;;;;;;;;;;;20.20;55.70;;;;;;8431845;28;20373;-42
2022/10/15 00:08:53;;;;;;;;;;;20.20;57.40;;;;;;8431681;28;19923;-44
2022/10/15 00:12:53;;;;;;;;;;;20.20;57.40;;;;;;8431683;28;19974;-46
2022/10/15 00:16:54;;;;;;;;;;;20.30;58.10;;;;;;8431217;28;19916;-45
2022/10/15 00:20:54;;;;;;;;;;;20.30;57.50;;;;;;8431021;28;20281;-45
2022/10/15 00:24:55;;;;;;;;;;;20.30;57.10;;;;;;8431504;28;19916;-44
2022/10/15 00:28:57;;;;;;;;;;;20.30;56.50;;;;;;8431540;28;19919;-44
2022/10/15 00:32:57;;;;;;;;;;;20.30;57.60;;;;;;8430603;28;19931;-45
2022/10/15 00:36:58;;;;;;;;;;;20.30;58.10;;;;;;8428179;28;19916;-44
2022/10/15 00:40:58;;;;;;;;;;;20.30;58.60;;;;;;8418298;28;19917;-44
2022/10/15 00:44:59;;;;;;;;;;;20.30;58.40;;;;;;8421287;28;19916;-45
2022/10/15 00:49:02;;;;;;;;;;;20.30;58.10;;;;;;8431101;28;20273;-44
2022/10/15 00:53:05;;;;;;;;;;;20.30;57.80;;;;;;8430501;28;19931;-44
2022/10/15 00:57:06;;;;;;;;;;;20.30;57.90;;;;;;8430059;28;19916;-43
2022/10/15 01:01:06;;;;;;;;;;;20.30;57.70;;;;;;8430349;28;19916;-44
2022/10/15 01:05:07;;;;;;;;;;;20.30;57.70;;;;;;8429075;28;19920;-45
2022/10/15 01:09:08;;;;;;;;;;;20.30;57.80;;;;;;8429823;28;19938;-44
2022/10/15 01:13:08;;;;;;;;;;;20.30;57.70;;;;;;8430361;28;20029;-44
2022/10/15 01:17:26;;;;;;;;;;;20.30;57.70;;;;;;8429962;28;19916;-46
2022/10/15 01:21:32;;;;;;;;;;;20.30;58.00;;;;;;8429263;28;19916;-47
2022/10/15 01:25:32;;;;;;;;;;;20.30;58.10;;;;;;8429838;28;19923;-45
2022/10/15 01:29:42;;;;;;;;;;;20.30;57.90;;;;;;8426727;28;19928;-46
2022/10/15 01:33:51;;;;;;;;;;;20.30;57.70;;;;;;8428557;28;19969;-45
2022/10/15 01:38:02;;;;;;;;;;;20.30;58.20;;;;;;8421313;28;20357;-46
2022/10/15 01:42:04;;;;;;;;;;;20.30;58.00;;;;;;8429323;28;20425;-45
2022/10/15 01:46:07;;;;;;;;;;;20.30;58.70;;;;;;8429723;28;20269;-45
2022/10/15 01:50:08;;;;;;;;;;;20.30;58.50;;;;;;8429509;28;19920;-46
2022/10/15 01:54:10;;;;;;;;;;;20.30;58.30;;;;;;8429043;28;19912;-46
2022/10/15 01:58:11;;;;;;;;;;;20.30;58.10;;;;;;8410443;28;19917;-46
2022/10/15 02:02:12;;;;;;;;;;;20.30;58.20;;;;;;8395723;28;19916;-47
2022/10/15 02:06:19;;;;;;;;;;;20.30;58.10;;;;;;8424802;28;19920;-47
2022/10/15 02:10:26;;;;;;;;;;;20.30;58.20;;;;;;8429490;28;19921;-45
2022/10/15 02:14:47;;;;;;;;;;;20.30;58.40;;;;;;8429139;28;20296;-46
2022/10/15 02:18:47;;;;;;;;;;;20.30;58.50;;;;;;8413437;28;19917;-46
2022/10/15 02:23:01;;;;;;;;;;;20.30;58.70;;;;;;8389276;28;19928;-46
2022/10/15 02:27:02;;;;;;;;;;;20.30;59.20;;;;;;8372521;28;20007;-45
2022/10/15 02:31:03;;;;;;;;;;;20.30;59.10;;;;;;8397953;28;20259;-45
2022/10/15 02:35:05;;;;;;;;;;;20.30;59.00;;;;;;8429027;28;19969;-47
2022/10/15 02:39:07;;;;;;;;;;;20.30;59.40;;;;;;8430639;28;19923;-46
2022/10/15 02:43:08;;;;;;;;;;;20.30;59.20;;;;;;8434992;28;19916;-46
2022/10/15 02:47:10;;;;;;;;;;;20.30;60.20;;;;;;8434393;28;19916;-45
2022/10/15 02:51:10;;;;;;;;;;;20.30;59.00;;;;;;8433874;28;19973;-45
2022/10/15 02:55:10;;;;;;;;;;;20.30;59.40;;;;;;8432780;28;19916;-45
2022/10/15 02:59:11;;;;;;;;;;;20.30;58.90;;;;;;8434285;28;19939;-46
2022/10/15 03:03:11;;;;;;;;;;;20.30;59.80;;;;;;8430253;28;19924;-45
2022/10/15 03:07:13;;;;;;;;;;;20.30;59.40;;;;;;8430908;28;19916;-45
2022/10/15 03:11:13;;;;;;;;;;;20.30;59.60;;;;;;8406433;28;20124;-44
2022/10/15 03:15:13;;;;;;;;;;;20.30;59.20;;;;;;8391595;28;19918;-46
2022/10/15 03:19:14;;;;;;;;;;;20.30;59.60;;;;;;8395868;28;20370;-44
2022/10/15 03:23:15;;;;;;;;;;;20.30;60.10;;;;;;8417013;28;19962;-45
2022/10/15 03:27:15;;;;;;;;;;;20.30;59.60;;;;;;8430617;28;19969;-44
2022/10/15 03:31:16;;;;;;;;;;;20.40;59.60;;;;;;8430793;28;19924;-46
2022/10/15 03:35:16;;;;;;;;;;;20.40;59.90;;;;;;8427157;28;20293;-45
2022/10/15 03:39:17;;;;;;;;;;;20.40;59.80;;;;;;8430605;28;19916;-46
2022/10/15 03:43:17;;;;;;;;;;;20.50;61.00;;;;;;8430376;28;19917;-46
2022/10/15 03:47:18;;;;;;;;;;;20.50;59.60;;;;;;8431718;28;19913;-44
2022/10/15 03:51:18;;;;;;;;;;;20.60;58.80;;;;;;8424187;28;19925;-44
2022/10/15 03:55:18;;;;;;;;;;;20.60;58.00;;;;;;8410747;28;19916;-45
2022/10/15 03:59:19;;;;;;;;;;;20.60;58.20;;;;;;8416924;28;20407;-45
2022/10/15 04:03:19;;;;;;;;;;;20.70;59.80;;;;;;8425015;28;19931;-46
2022/10/15 04:07:20;;;;;;;;;;;20.70;59.70;;;;;;8431353;28;19926;-44
2022/10/15 04:11:20;;;;;;;;;;;20.70;59.60;;;;;;8423703;28;19924;-44
2022/10/15 04:15:21;;;;;;;;;;;20.80;59.60;;;;;;8431232;28;19999;-45
2022/10/15 04:19:21;;;;;;;;;;;20.80;59.50;;;;;;8421450;28;19916;-45
2022/10/15 04:23:22;;;;;;;;;;;20.90;59.70;;;;;;8418398;28;19913;-44
2022/10/15 04:27:22;;;;;;;;;;;20.90;59.60;;;;;;8430880;28;19927;-43
2022/10/15 04:31:23;;;;;;;;;;;20.90;59.60;;;;;;8431302;28;19928;-43
2022/10/15 04:35:23;;;;;;;;;;;21.00;59.40;;;;;;8431227;28;19920;-43
2022/10/15 04:39:23;;;;;;;;;;;21.00;59.40;;;;;;8430299;28;19958;-44
2022/10/15 04:43:24;;;;;;;;;;;21.00;59.30;;;;;;8430940;28;19924;-43
2022/10/15 04:47:24;;;;;;;;;;;21.00;59.40;;;;;;8430586;28;19912;-44
2022/10/15 04:51:25;;;;;;;;;;;21.10;59.40;;;;;;8429981;28;19977;-44
2022/10/15 04:55:25;;;;;;;;;;;21.10;59.50;;;;;;8412542;28;19920;-44
2022/10/15 04:59:26;;;;;;;;;;;21.10;59.50;;;;;;8430275;28;20326;-46
2022/10/15 05:03:26;;;;;;;;;;;21.10;59.40;;;;;;8429588;28;20328;-44
2022/10/15 05:07:27;;;;;;;;;;;21.20;59.60;;;;;;8415728;28;19970;-44
2022/10/15 05:11:28;;;;;;;;;;;21.20;59.80;;;;;;8419665;28;20414;-45
2022/10/15 05:15:28;;;;;;;;;;;21.20;59.70;;;;;;8430112;28;19916;-45
2022/10/15 05:19:28;;;;;;;;;;;21.30;59.70;;;;;;8430056;28;19923;-44
2022/10/15 05:23:29;;;;;;;;;;;21.20;60.50;;;;;;8402723;28;19917;-43
2022/10/15 05:27:29;;;;;;;;;;;21.30;59.90;;;;;;8425683;28;19918;-45
2022/10/15 05:31:31;;;;;;;;;;;21.30;59.10;;;;;;8421409;28;19924;-45
2022/10/15 05:35:31;;;;;;;;;;;21.30;59.60;;;;;;8405995;28;19970;-44
2022/10/15 05:39:32;;;;;;;;;;;21.30;60.10;;;;;;8425693;28;19987;-43
2022/10/15 05:43:32;;;;;;;;;;;21.20;58.90;;;;;;8425733;28;20278;-43
2022/10/15 05:47:32;;;;;;;;;;;21.10;58.70;;;;;;8429322;28;20269;-44
2022/10/15 05:51:33;;;;;;;;;;;21.00;57.70;;;;;;8429291;28;19950;-43
2022/10/15 05:55:33;;;;;;;;;;;20.90;58.00;;;;;;8429352;28;20324;-45
2022/10/15 05:59:34;;;;;;;;;;;20.90;59.20;;;;;;8429372;28;19924;-45
2022/10/15 06:03:34;;;;;;;;;;;21.00;59.90;;;;;;8428556;28;20345;-45
2022/10/15 06:07:35;;;;;;;;;;;21.10;60.00;;;;;;8429303;28;19912;-45
2022/10/15 06:11:36;;;;;;;;;;;21.20;59.80;;;;;;8429289;28;19925;-45
2022/10/15 06:15:40;;;;;;;;;;;21.30;59.60;;;;;;8408450;28;19919;-45
2022/10/15 06:19:40;;;;;;;;;;;21.30;59.50;;;;;;8435977;28;19923;-45
2022/10/15 06:23:40;;;;;;;;;;;21.40;59.70;;;;;;8429735;28;19916;-44
2022/10/15 06:27:41;;;;;;;;;;;21.50;59.60;;;;;;8426889;28;20019;-44
2022/10/15 06:31:41;;;;;;;;;;;21.50;59.70;;;;;;8429918;28;20388;-45
2022/10/15 06:35:42;;;;;;;;;;;21.50;59.10;;;;;;8431606;28;19969;-44
2022/10/15 06:39:42;;;;;;;;;;;21.50;58.60;;;;;;8423014;28;19916;-44
2022/10/15 06:43:44;;;;;;;;;;;21.30;58.20;;;;;;8414617;28;19916;-43
2022/10/15 06:47:45;;;;;;;;;;;21.10;57.80;;;;;;8429142;28;19961;-44
2022/10/15 06:51:45;;;;;;;;;;;21.00;57.70;;;;;;8415938;28;19933;-45
2022/10/15 06:55:46;;;;;;;;;;;20.90;57.60;;;;;;8410448;28;20007;-45
2022/10/15 06:59:46;;;;;;;;;;;20.90;57.70;;;;;;8417944;28;19916;-45
2022/10/15 07:03:50;;;;;;;;;;;20.80;57.40;;;;;;8399970;28;19921;-46
2022/10/15 07:07:54;;;;;;;;;;;20.70;57.70;;;;;;8412664;28;20369;-45
2022/10/15 07:11:55;;;;;;;;;;;20.60;58.40;;;;;;8408535;28;19920;-46
2022/10/15 07:15:55;;;;;;;;;;;20.80;59.50;;;;;;8429595;28;19916;-45
2022/10/15 07:19:56;;;;;;;;;;;20.90;58.20;;;;;;8431533;28;19923;-44
2022/10/15 07:23:58;;;;;;;;;;;20.90;58.30;;;;;;8432753;28;19919;-46
2022/10/15 07:27:58;;;;;;;;;;;20.90;59.30;;;;;;8430995;28;19916;-44
2022/10/15 07:31:59;;;;;;;;;;;21.00;58.00;;;;;;8430118;28;19932;-45
2022/10/15 07:36:04;;;;;;;;;;;21.00;58.30;;;;;;8429632;28;19922;-45
2022/10/15 07:40:05;;;;;;;;;;;20.80;57.30;;;;;;8428875;28;20382;-46
2022/10/15 07:44:05;;;;;;;;;;;20.80;57.00;;;;;;8431289;28;19916;-44
2022/10/15 07:48:06;;;;;;;;;;;20.70;57.00;;;;;;8427647;28;20314;-46
2022/10/15 07:52:09;;;;;;;;;;;20.70;57.20;;;;;;8414115;28;19928;-45
2022/10/15 07:56:10;;;;;;;;;;;20.60;57.10;;;;;;8432092;28;20296;-44
2022/10/15 08:00:11;;;;;;;;;;;20.60;57.60;;;;;;8431871;28;19916;-44
2022/10/15 08:04:11;;;;;;;;;;;20.70;57.60;;;;;;8431990;28;19946;-46
2022/10/15 08:08:12;;;;;;;;;;;20.60;57.50;;;;;;8431796;28;19958;-44
2022/10/15 08:12:12;;;;;;;;;;;20.60;57.60;;;;;;8423752;28;19928;-42
2022/10/15 08:16:14;;;;;;;;;;;20.70;58.10;;;;;;8428097;28;19923;-45
2022/10/15 08:20:14;;;;;;;;;;;20.70;58.60;;;;;;8431640;28;19927;-44
2022/10/15 08:24:14;;;;;;;;;;;20.80;58.10;;;;;;8430914;28;19949;-44
2022/10/15 08:28:15;;;;;;;;;;;20.80;57.90;;;;;;8431501;28;19993;-44
2022/10/15 08:32:15;;;;;;;;;;;20.90;57.50;;;;;;8431496;28;19924;-45
2022/10/15 08:36:16;;;;;;;;;;;21.00;57.40;;;;;;8430027;28;19943;-44
2022/10/15 08:40:17;;;;;;;;;;;21.00;57.40;;;;;;8430800;28;19939;-44
2022/10/15 08:44:17;;;;;;;;;;;21.10;57.40;;;;;;8430695;28;20433;-47
2022/10/15 08:48:20;;;;;;;;;;;21.10;57.30;;;;;;8422507;28;19924;-46
2022/10/15 08:52:24;;;;;;;;;;;21.10;57.70;;;;;;8427451;28;19964;-43
2022/10/15 08:56:35;;;;;;;;;;;21.10;58.00;;;;;;8428333;28;20285;-46
2022/10/15 09:00:44;;;;;;;;;;;21.00;57.10;;;;;;8423927;28;20280;-45
2022/10/15 09:05:00;;;;;;;;;;;20.90;57.00;;;;;;8425346;28;20292;-44
2022/10/15 09:09:18;;;;;;;;;;;20.90;58.60;;;;;;8430042;28;19923;-44
2022/10/15 09:13:24;;;;;;;;;;;20.90;58.00;;;;;;8430053;28;20321;-46
2022/10/15 09:17:25;;;;;;;;;;;21.00;57.60;;;;;;8430404;28;19924;-45
2022/10/15 09:21:26;;;;;;;;;;;21.00;57.40;;;;;;8429401;28;19977;-45
2022/10/15 09:25:31;;;;;;;;;;;21.10;57.30;;;;;;8430061;28;19931;-44
2022/10/15 09:29:38;;;;;;;;;;;21.10;57.10;;;;;;8429795;28;19916;-44
2022/10/15 09:33:38;;;;;;;;;;;21.10;57.00;;;;;;8429294;28;20288;-43
2022/10/15 09:37:41;;;;;;;;;;;21.20;57.00;;;;;;8429864;28;19912;-45
2022/10/15 09:42:00;;;;;;;;;;;21.20;56.80;;;;;;8429523;28;19923;-48
2022/10/15 09:46:02;;;;;;;;;;;21.20;56.70;;;;;;8406716;28;19955;-44
2022/10/15 09:50:04;;;;;;;;;;;21.20;56.50;;;;;;8433943;28;20281;-44
2022/10/15 09:54:14;;;;;;;;;;;21.20;56.50;;;;;;8435620;28;19916;-46
2022/10/15 09:58:20;;;;;;;;;;;21.20;56.40;;;;;;8436344;28;19940;-47
2022/10/15 10:02:22;;;;;;;;;;;21.20;56.40;;;;;;8436202;28;19912;-45
2022/10/15 10:06:23;;;;;;;;;;;21.20;56.30;;;;;;8435230;28;20369;-45
2022/10/15 10:10:23;;;;;;;;;;;21.20;56.70;;;;;;8434604;28;19978;-44
2022/10/15 10:14:26;;;;;;;;;;;21.30;56.70;;;;;;8435620;28;20010;-45
2022/10/15 10:18:27;;;;;;;;;;;21.30;56.60;;;;;;8435010;28;19957;-45
2022/10/15 10:22:27;;;;;;;;;;;21.30;56.50;;;;;;8435708;28;20357;-44
2022/10/15 10:26:33;;;;;;;;;;;21.30;56.50;;;;;;8435388;28;19916;-44
2022/10/15 10:30:38;;;;;;;;;;;21.30;56.50;;;;;;8434678;28;19931;-46
2022/10/15 10:34:41;;;;;;;;;;;21.30;56.40;;;;;;8435226;28;19916;-45
2022/10/15 10:38:42;;;;;;;;;;;21.30;56.40;;;;;;8435039;28;19912;-45
2022/10/15 10:42:42;;;;;;;;;;;21.30;56.30;;;;;;8435015;28;19924;-45
2022/10/15 10:46:43;;;;;;;;;;;21.30;56.20;;;;;;8434644;28;19920;-44
2022/10/15 10:50:43;;;;;;;;;;;21.30;56.20;;;;;;8433996;28;20114;-45
2022/10/15 10:54:45;;;;;;;;;;;21.30;56.10;;;;;;8434534;28;20015;-44
2022/10/15 10:58:46;;;;;;;;;;;21.30;56.00;;;;;;8434019;28;19912;-43
2022/10/15 11:02:47;;;;;;;;;;;21.40;56.10;;;;;;8433832;28;19955;-47
2022/10/15 11:06:53;;;;;;;;;;;21.30;56.00;;;;;;8432047;28;19923;-45
2022/10/15 11:10:56;;;;;;;;;;;21.30;56.00;;;;;;8432034;28;19924;-44
2022/10/15 11:15:02;;;;;;;;;;;21.30;56.00;;;;;;8431429;28;19916;-45
2022/10/15 11:19:03;;;;;;;;;;;21.30;55.90;;;;;;8432135;28;20277;-45
2022/10/15 11:23:22;;;;;;;;;;;21.30;55.80;;;;;;8431915;28;19944;-45
2022/10/15 11:27:38;;;;;;;;;;;21.30;55.80;;;;;;8430999;28;19916;-46
2022/10/15 11:31:49;;;;;;;;;;;21.30;55.70;;;;;;8424526;28;19931;-46
2022/10/15 11:35:50;;;;;;;;;;;21.30;55.70;;;;;;8431017;28;19920;-44
2022/10/15 11:39:58;;;;;;;;;;;21.30;55.70;;;;;;8413078;28;20028;-45
2022/10/15 11:44:17;;;;;;;;;;;21.30;55.70;;;;;;8431007;28;19912;-46
2022/10/15 11:48:22;;;;;;;;;;;21.30;55.60;;;;;;8430810;28;19918;-45
2022/10/15 11:52:22;;;;;;;;;;;21.40;55.60;;;;;;8431499;28;19924;-44
2022/10/15 11:56:28;;;;;;;;;;;21.40;55.50;;;;;;8430924;28;19926;-45
2022/10/15 12:00:32;;;;;;;;;;;21.40;55.50;;;;;;8430108;28;20444;-47
2022/10/15 12:06:40;;;;;;;;;;;21.40;55.40;;;;;;8424922;27;20396;-44
2022/10/15 12:11:02;;;;;;;;;;;21.40;55.40;;;;;;8392237;28;19921;-44
2022/10/15 12:15:12;;;;;;;;;;;21.40;55.40;;;;;;8391553;28;19924;-43
2022/10/15 12:19:20;;;;;;;;;;;21.40;55.30;;;;;;8392135;28;19913;-45
2022/10/15 12:23:22;;;;;;;;;;;21.40;55.30;;;;;;8391939;28;20027;-44
2022/10/15 12:27:25;;;;;;;;;;;21.40;55.30;;;;;;8391320;28;19924;-46
2022/10/15 12:31:41;;;;;;;;;;;21.40;55.30;;;;;;8391541;28;19991;-43
2022/10/15 12:35:42;;;;;;;;;;;21.40;55.30;;;;;;8391186;28;19923;-44
2022/10/15 12:39:43;;;;;;;;;;;21.40;55.10;;;;;;8390821;28;19917;-44
2022/10/15 12:43:46;;;;;;;;;;;21.40;55.10;;;;;;8391028;28;19924;-43
2022/10/15 12:48:02;;;;;;;;;;;21.40;55.10;;;;;;8390484;28;19917;-45
2022/10/15 12:52:22;;;;;;;;;;;21.40;55.10;;;;;;8390728;28;20000;-43
2022/10/15 12:56:33;;;;;;;;;;;21.40;55.00;;;;;;8390419;28;19920;-44
2022/10/15 13:00:35;;;;;;;;;;;21.40;55.10;;;;;;8390017;28;19970;-44
2022/10/15 13:04:37;;;;;;;;;;;21.40;55.00;;;;;;8390286;28;19932;-45
2022/10/15 13:08:41;;;;;;;;;;;21.40;55.00;;;;;;8390228;28;19923;-45
2022/10/15 13:12:42;;;;;;;;;;;21.40;55.00;;;;;;8388139;28;20267;-44
2022/10/15 13:16:43;;;;;;;;;;;21.40;55.00;;;;;;8375093;28;19917;-44
2022/10/15 13:20:44;;;;;;;;;;;21.40;54.90;;;;;;8367663;28;19917;-44
2022/10/15 13:24:45;;;;;;;;;;;21.40;54.90;;;;;;8367591;28;19979;-44
2022/10/15 13:28:46;;;;;;;;;;;21.40;54.80;;;;;;8367897;28;20001;-45
2022/10/15 13:32:51;;;;;;;;;;;21.40;54.80;;;;;;8367258;28;19924;-44
2022/10/15 13:36:52;;;;;;;;;;;21.40;54.80;;;;;;8367372;28;20293;-44
2022/10/15 13:40:53;;;;;;;;;;;21.40;54.80;;;;;;8367536;28;19968;-44
2022/10/15 13:45:01;;;;;;;;;;;21.40;54.70;;;;;;8366668;28;20011;-44
2022/10/15 13:49:11;;;;;;;;;;;21.40;54.70;;;;;;8367539;28;19916;-45
2022/10/15 13:53:21;;;;;;;;;;;21.40;54.70;;;;;;8367029;28;20294;-44
2022/10/15 13:57:22;;;;;;;;;;;21.40;54.70;;;;;;8366451;28;19917;-44
2022/10/15 14:01:23;;;;;;;;;;;21.40;54.70;;;;;;8366878;28;19924;-44
2022/10/15 14:05:23;;;;;;;;;;;21.40;54.60;;;;;;8366303;28;19960;-43
2022/10/15 14:09:27;;;;;;;;;;;21.40;54.70;;;;;;8366233;28;19921;-43
2022/10/15 14:13:28;;;;;;;;;;;21.40;54.70;;;;;;8366449;28;20336;-43
2022/10/15 14:17:28;;;;;;;;;;;21.40;54.70;;;;;;8366296;28;19917;-45
2022/10/15 14:21:31;;;;;;;;;;;21.40;54.70;;;;;;8365652;28;19917;-44
2022/10/15 14:25:31;;;;;;;;;;;21.40;54.70;;;;;;8365761;28;19931;-44
2022/10/15 14:29:42;;;;;;;;;;;21.40;54.70;;;;;;8365072;28;19913;-44
2022/10/15 14:33:43;;;;;;;;;;;21.40;54.70;;;;;;8365358;28;19924;-44
2022/10/15 14:37:44;;;;;;;;;;;21.40;54.70;;;;;;8365546;28;19924;-46
2022/10/15 14:42:14;;;;;;;;;;;21.40;54.60;;;;;;8364894;28;19970;-44
2022/10/15 14:46:17;;;;;;;;;;;21.40;54.60;;;;;;8345580;28;19928;-46
2022/10/15 14:50:18;;;;;;;;;;;21.40;54.70;;;;;;8365118;28;20397;-45
2022/10/15 14:54:21;;;;;;;;;;;21.40;54.70;;;;;;8364820;28;19919;-46
2022/10/15 14:58:22;;;;;;;;;;;21.40;54.70;;;;;;8364929;28;19955;-45
2022/10/15 15:02:24;;;;;;;;;;;21.40;54.60;;;;;;8364861;28;19970;-45
2022/10/15 15:06:25;;;;;;;;;;;21.40;54.60;;;;;;8364118;28;20300;-45
2022/10/15 15:10:26;;;;;;;;;;;21.40;54.60;;;;;;8364711;28;19912;-45
2022/10/15 15:14:26;;;;;;;;;;;21.40;54.60;;;;;;8364612;28;20381;-45
2022/10/15 15:18:27;;;;;;;;;;;21.40;54.60;;;;;;8363933;28;20263;-45
2022/10/15 15:22:31;;;;;;;;;;;21.40;54.60;;;;;;8364436;28;19924;-45
2022/10/15 15:26:31;;;;;;;;;;;21.30;55.20;;;;;;8363926;28;20366;-45
2022/10/15 15:30:33;;;;;;;;;;;21.40;54.60;;;;;;8363493;28;19920;-45
2022/10/15 15:34:33;;;;;;;;;;;21.40;54.60;;;;;;8331128;28;19917;-45
2022/10/15 15:38:34;;;;;;;;;;;21.40;54.60;;;;;;8356280;28;19917;-45
2022/10/15 15:42:34;;;;;;;;;;;21.40;54.50;;;;;;8363307;28;19920;-44
2022/10/15 15:46:34;;;;;;;;;;;21.30;54.50;;;;;;8363568;28;19983;-44
2022/10/15 15:50:35;;;;;;;;;;;21.40;54.50;;;;;;8363461;28;19916;-44
2022/10/15 15:54:36;;;;;;;;;;;21.40;54.60;;;;;;8363129;28;19913;-45
2022/10/15 15:58:36;;;;;;;;;;;21.40;54.50;;;;;;8363329;28;19955;-45
2022/10/15 16:02:37;;;;;;;;;;;21.40;54.50;;;;;;8363168;28;20389;-45
2022/10/15 16:06:38;;;;;;;;;;;21.30;54.50;;;;;;8362600;28;20341;-45
2022/10/15 16:10:38;;;;;;;;;;;21.40;54.50;;;;;;8358334;28;20396;-45
2022/10/15 16:14:39;;;;;;;;;;;21.40;54.50;;;;;;8362780;28;19923;-45
2022/10/15 16:18:39;;;;;;;;;;;21.30;54.50;;;;;;8362664;28;19994;-45
2022/10/15 16:22:41;;;;;;;;;;;21.30;54.50;;;;;;8363084;28;19920;-46
2022/10/15 16:26:41;;;;;;;;;;;21.40;54.60;;;;;;8362764;28;19925;-46
2022/10/15 16:30:42;;;;;;;;;;;21.30;54.40;;;;;;8362785;28;20351;-45
2022/10/15 16:34:42;;;;;;;;;;;21.30;54.60;;;;;;8362792;28;20016;-45
2022/10/15 16:38:43;;;;;;;;;;;21.30;54.50;;;;;;8362156;28;19917;-45
2022/10/15 16:42:44;;;;;;;;;;;21.30;54.50;;;;;;8362748;28;19923;-46
2022/10/15 16:46:44;;;;;;;;;;;21.30;54.50;;;;;;8362620;28;20305;-45
2022/10/15 16:50:45;;;;;;;;;;;21.30;54.60;;;;;;8364291;28;19963;-44
2022/10/15 16:54:45;;;;;;;;;;;21.30;54.60;;;;;;8368707;28;19924;-45
2022/10/15 16:58:46;;;;;;;;;;;21.30;54.60;;;;;;8368758;28;19955;-44
2022/10/15 17:02:47;;;;;;;;;;;21.30;54.60;;;;;;8367991;28;20374;-46
2022/10/15 17:06:47;;;;;;;;;;;21.30;54.50;;;;;;8368680;28;19920;-46
2022/10/15 17:10:47;;;;;;;;;;;21.20;54.60;;;;;;8368732;28;19913;-45
2022/10/15 17:14:49;;;;;;;;;;;21.30;54.50;;;;;;8367660;28;19917;-44
2022/10/15 17:18:50;;;;;;;;;;;21.30;54.50;;;;;;8368244;28;19924;-45
2022/10/15 17:22:50;;;;;;;;;;;21.30;54.60;;;;;;8368042;28;20378;-44
2022/10/15 17:26:51;;;;;;;;;;;21.30;54.50;;;;;;8367300;28;20016;-45
2022/10/15 17:30:51;;;;;;;;;;;21.20;54.60;;;;;;8367872;28;19928;-44
2022/10/15 17:34:52;;;;;;;;;;;21.20;54.50;;;;;;8367531;28;20007;-45
2022/10/15 17:38:56;;;;;;;;;;;21.20;54.40;;;;;;8366993;28;19917;-45
2022/10/15 17:42:56;;;;;;;;;;;21.20;54.50;;;;;;8367469;28;19917;-45
2022/10/15 17:46:57;;;;;;;;;;;21.20;54.50;;;;;;8367187;28;19917;-45
2022/10/15 17:50:58;;;;;;;;;;;21.20;54.50;;;;;;8366936;28;19958;-46
2022/10/15 17:54:58;;;;;;;;;;;21.20;54.50;;;;;;8366923;28;19917;-47
2022/10/15 17:59:00;;;;;;;;;;;21.20;54.50;;;;;;8366885;28;20380;-43
2022/10/15 18:03:00;;;;;;;;;;;21.20;54.40;;;;;;8366092;28;19972;-46
2022/10/15 18:07:01;;;;;;;;;;;21.20;54.50;;;;;;8366812;28;19923;-45
2022/10/15 18:11:02;;;;;;;;;;;21.20;54.40;;;;;;8366685;28;19919;-43
2022/10/15 18:15:02;;;;;;;;;;;21.20;54.40;;;;;;8365944;28;19973;-43
2022/10/15 18:19:03;;;;;;;;;;;21.20;54.40;;;;;;8366355;28;19917;-45
2022/10/15 18:23:03;;;;;;;;;;;21.20;54.40;;;;;;8366012;28;19917;-44
2022/10/15 18:27:04;;;;;;;;;;;21.20;54.60;;;;;;8365630;28;19917;-45
2022/10/15 18:31:06;;;;;;;;;;;21.20;54.40;;;;;;8365997;28;19951;-45
2022/10/15 18:35:07;;;;;;;;;;;21.20;54.40;;;;;;8365517;28;19917;-46
2022/10/15 18:39:07;;;;;;;;;;;21.10;54.30;;;;;;8365187;28;20328;-44
2022/10/15 18:43:08;;;;;;;;;;;21.10;54.50;;;;;;8365254;28;19964;-44
2022/10/15 18:47:09;;;;;;;;;;;21.10;54.50;;;;;;8365316;28;19923;-44
2022/10/15 18:51:10;;;;;;;;;;;21.10;54.40;;;;;;8365056;28;19928;-44
2022/10/15 18:55:10;;;;;;;;;;;21.10;54.40;;;;;;8364926;28;19917;-46
2022/10/15 18:59:11;;;;;;;;;;;21.10;54.40;;;;;;8364798;28;19927;-46
2022/10/15 19:03:11;;;;;;;;;;;21.10;54.40;;;;;;8364170;28;19924;-46
2022/10/15 19:07:12;;;;;;;;;;;21.10;54.30;;;;;;8363908;28;19921;-45
2022/10/15 19:11:13;;;;;;;;;;;21.10;54.40;;;;;;8364804;28;19917;-46
2022/10/15 19:15:13;;;;;;;;;;;21.10;54.50;;;;;;8363374;28;20006;-45
2022/10/15 19:19:16;;;;;;;;;;;21.10;54.40;;;;;;8364517;28;20003;-44
2022/10/15 19:23:16;;;;;;;;;;;21.10;54.30;;;;;;8364203;28;19921;-46
2022/10/15 19:27:16;;;;;;;;;;;21.10;54.30;;;;;;8363794;28;20382;-46
2022/10/15 19:31:28;;;;;;;;;;;21.10;54.30;;;;;;8364191;28;19923;-45
2022/10/15 19:35:28;;;;;;;;;;;21.00;54.30;;;;;;8364029;28;19916;-45
2022/10/15 19:39:31;;;;;;;;;;;21.10;54.30;;;;;;8363375;28;19978;-46
2022/10/15 19:43:31;;;;;;;;;;;21.00;54.30;;;;;;8363817;28;20404;-46
2022/10/15 19:47:32;;;;;;;;;;;21.00;54.30;;;;;;8363362;28;19917;-45
2022/10/15 19:51:33;;;;;;;;;;;21.00;54.20;;;;;;8363305;28;19913;-45
2022/10/15 19:55:33;;;;;;;;;;;21.00;54.20;;;;;;8363265;28;20354;-45
2022/10/15 19:59:33;;;;;;;;;;;21.00;54.20;;;;;;8363330;28;19913;-45
2022/10/15 20:03:34;;;;;;;;;;;21.00;54.20;;;;;;8362070;28;20317;-46
2022/10/15 20:07:34;;;;;;;;;;;21.00;54.40;;;;;;8363219;28;19923;-47
2022/10/15 20:11:35;;;;;;;;;;;21.00;54.20;;;;;;8363371;28;19921;-45
2022/10/15 20:15:39;;;;;;;;;;;21.00;54.10;;;;;;8362659;28;19921;-44
2022/10/15 20:19:40;;;;;;;;;;;21.00;54.30;;;;;;8363002;28;19943;-44
2022/10/15 20:23:41;;;;;;;;;;;21.00;54.30;;;;;;8362847;28;19982;-43
2022/10/15 20:27:42;;;;;;;;;;;21.00;54.30;;;;;;8367838;28;20267;-44
2022/10/15 20:31:43;;;;;;;;;;;21.00;54.30;;;;;;8369843;28;20007;-43
2022/10/15 20:35:43;;;;;;;;;;;21.00;54.20;;;;;;8369065;28;20019;-45
2022/10/15 20:39:44;;;;;;;;;;;21.00;54.10;;;;;;8369355;28;20050;-44
2022/10/15 20:43:45;;;;;;;;;;;21.00;54.20;;;;;;8369129;28;19925;-45
2022/10/15 20:47:48;;;;;;;;;;;21.00;54.30;;;;;;8368737;28;19924;-44
2022/10/15 20:51:49;;;;;;;;;;;21.00;54.20;;;;;;8369168;28;19920;-44
2022/10/15 20:55:50;;;;;;;;;;;21.00;54.10;;;;;;8368670;28;20278;-45
2022/10/15 20:59:50;;;;;;;;;;;21.00;54.20;;;;;;8368265;28;20282;-44
2022/10/15 21:03:51;;;;;;;;;;;21.00;54.20;;;;;;8368430;28;20361;-44
2022/10/15 21:07:51;;;;;;;;;;;21.00;54.10;;;;;;8368438;28;20402;-44
2022/10/15 21:11:52;;;;;;;;;;;21.00;54.10;;;;;;8367942;28;19952;-45
2022/10/15 21:15:59;;;;;;;;;;;20.90;54.10;;;;;;8368370;28;19948;-45
2022/10/15 21:19:59;;;;;;;;;;;21.00;54.10;;;;;;8368004;28;19920;-44
2022/10/15 21:24:00;;;;;;;;;;;21.00;54.10;;;;;;8367332;28;20023;-44
2022/10/15 21:28:00;;;;;;;;;;;20.90;54.10;;;;;;8367929;28;19913;-46
2022/10/15 21:32:01;;;;;;;;;;;20.90;54.10;;;;;;8368150;28;19916;-44
2022/10/15 21:36:08;;;;;;;;;;;20.90;54.30;;;;;;8366725;28;19913;-44
2022/10/15 21:40:09;;;;;;;;;;;20.90;54.10;;;;;;8367405;28;19923;-45
2022/10/15 21:44:10;;;;;;;;;;;21.00;54.20;;;;;;8367187;28;20302;-45
2022/10/15 21:48:10;;;;;;;;;;;20.90;54.20;;;;;;8366777;28;19923;-45
2022/10/15 21:52:11;;;;;;;;;;;20.90;54.20;;;;;;8367330;28;19916;-44
2022/10/15 21:56:11;;;;;;;;;;;20.90;54.00;;;;;;8366944;28;19917;-45
2022/10/15 22:00:13;;;;;;;;;;;20.90;54.20;;;;;;8366355;28;19920;-45
2022/10/15 22:04:14;;;;;;;;;;;20.90;54.70;;;;;;8361827;28;20371;-44
2022/10/15 22:08:14;;;;;;;;;;;20.90;54.70;;;;;;8334909;28;20000;-45
2022/10/15 22:12:15;;;;;;;;;;;20.90;54.20;;;;;;8366431;28;19948;-45
2022/10/15 22:16:16;;;;;;;;;;;20.90;54.20;;;;;;8366475;28;19921;-45
2022/10/15 22:20:16;;;;;;;;;;;20.90;54.30;;;;;;8366035;28;19912;-48
2022/10/15 22:24:18;;;;;;;;;;;20.90;54.20;;;;;;8365434;28;19925;-46
2022/10/15 22:28:18;;;;;;;;;;;20.90;54.40;;;;;;8365871;28;19912;-45
2022/10/15 22:32:19;;;;;;;;;;;20.80;54.20;;;;;;8366084;28;19923;-44
2022/10/15 22:36:29;;;;;;;;;;;20.80;54.30;;;;;;8365301;28;19980;-45
2022/10/15 22:40:29;;;;;;;;;;;20.90;54.30;;;;;;8365821;28;20431;-45
2022/10/15 22:44:30;;;;;;;;;;;20.80;54.20;;;;;;8365360;28;19920;-46
2022/10/15 22:48:33;;;;;;;;;;;20.80;54.20;;;;;;8364112;28;19917;-46
2022/10/15 22:52:34;;;;;;;;;;;20.80;54.40;;;;;;8365664;28;20011;-44
2022/10/15 22:56:35;;;;;;;;;;;20.80;54.40;;;;;;8365119;28;20365;-45
2022/10/15 23:00:36;;;;;;;;;;;20.80;54.30;;;;;;8364432;28;19920;-45
2022/10/15 23:04:36;;;;;;;;;;;20.80;54.40;;;;;;8364835;28;20018;-45
2022/10/15 23:08:37;;;;;;;;;;;20.80;54.40;;;;;;8364617;28;19920;-45
2022/10/15 23:12:37;;;;;;;;;;;20.80;54.40;;;;;;8364577;28;19920;-44
2022/10/15 23:16:39;;;;;;;;;;;20.80;54.20;;;;;;8364392;28;19921;-45
2022/10/15 23:20:40;;;;;;;;;;;20.80;54.30;;;;;;8364396;28;19993;-46
2022/10/15 23:24:40;;;;;;;;;;;20.70;54.30;;;;;;8363610;28;19924;-44
2022/10/15 23:28:48;;;;;;;;;;;20.70;54.90;;;;;;8364078;28;19965;-46